Cardigan, United Kingdom
Current Conditions -  °F | °C
As of 10:50 AM on Friday 24 Oct 2014 (Local Time) from EGOP Reporting Station
Drizzle Drizzle  
Wind Chill: 55°   Ceiling: 500
Heat Index: 55°   Visibility: 5mi
Dew Point: 55°   Wind: 0mph
Humidity: 100%   Direction: NA
Pressure: 29.91"   Gusts: NA
Location:  52.09°N, 4.66°W
Report Text: EGOP 240950Z 00000KT 8000 -DZ FEW003 BKN005 13/13 Q1013 YLO1
Loading
Personal Weather Stations






























Interactive Weather Map New forecast layout! Learn more

10-Day Weather Forecast

Advertisements
Track Severe Weather on mobile